Time;durP1;ratioP1;P1;durP2;ratioP2;P2;SDS_P1;SDS_P2;PMS_P1;PMS_P2;Temp;Humidity;BMP_temperature;BMP_pressure;BME280_temperature;BME280_humidity;BME280_pressure;Samples;Min_cycle;Max_cycle;Signal;HPM_P1;HPM_P2
2022/05/29 00:01:51;;;;;;;12.93;4.03;;;9.30;99.90;;;;;;4954943;29;20075;-89
2022/05/29 00:04:18;;;;;;;13.85;4.10;;;9.30;99.90;;;;;;4952931;29;20047;-90
2022/05/29 00:06:46;;;;;;;13.93;4.20;;;9.20;99.90;;;;;;4953526;29;20514;-89
2022/05/29 00:09:18;;;;;;;18.80;4.82;;;9.30;99.90;;;;;;4952746;29;20043;-90
2022/05/29 00:11:43;;;;;;;16.27;5.85;;;9.20;99.90;;;;;;4954690;29;20051;-90
2022/05/29 00:14:09;;;;;;;14.90;4.88;;;9.20;99.90;;;;;;4955002;29;20047;-89
2022/05/29 00:16:34;;;;;;;15.02;4.88;;;9.20;99.90;;;;;;4954261;29;20075;-89
2022/05/29 00:19:00;;;;;;;19.52;5.10;;;9.20;99.90;;;;;;4953658;29;20114;-89
2022/05/29 00:21:28;;;;;;;13.50;4.80;;;9.20;99.90;;;;;;4955029;29;20526;-90
2022/05/29 00:23:53;;;;;;;17.77;5.32;;;9.20;99.90;;;;;;4953789;28;20044;-89
2022/05/29 00:26:20;;;;;;;19.23;5.73;;;9.10;99.90;;;;;;4973834;28;20513;-88
2022/05/29 00:28:46;;;;;;;14.75;5.07;;;9.10;99.90;;;;;;4973319;28;20083;-90
2022/05/29 00:31:13;;;;;;;14.82;6.00;;;9.10;99.90;;;;;;4961995;28;20463;-91
2022/05/29 00:33:39;;;;;;;15.93;5.93;;;9.00;99.90;;;;;;4958395;28;20495;-90
2022/05/29 00:36:06;;;;;;;16.27;5.40;;;9.10;99.90;;;;;;4973805;28;20047;-91
2022/05/29 00:38:39;;;;;;;14.02;5.05;;;9.10;99.90;;;;;;4972869;28;20503;-91
2022/05/29 00:41:21;;;;;;;15.70;5.10;;;9.10;99.90;;;;;;4956653;28;20051;-91
2022/05/29 00:44:19;;;;;;;17.70;5.65;;;9.10;99.90;;;;;;4956164;28;20126;-90
2022/05/29 00:46:55;;;;;;;16.13;5.43;;;9.00;99.90;;;;;;4956982;28;20495;-91
2022/05/29 00:49:33;;;;;;;17.17;5.10;;;9.00;99.90;;;;;;4977741;28;20491;-91
2022/05/29 00:52:24;;;;;;;14.77;4.93;;;9.00;99.90;;;;;;4976554;28;20122;-90
2022/05/29 00:54:55;;;;;;;14.73;4.53;;;9.00;99.90;;;;;;4977246;28;20054;-91
2022/05/29 00:57:33;;;;;;;11.95;4.20;;;9.00;99.90;;;;;;4960247;28;20104;-90
2022/05/29 01:00:27;;;;;;;13.35;4.60;;;9.00;99.90;;;;;;4975416;28;20050;-91
2022/05/29 01:02:54;;;;;;;17.02;4.97;;;8.90;99.90;;;;;;4956790;28;20385;-91
2022/05/29 01:05:22;;;;;;;14.43;4.88;;;8.90;99.90;;;;;;4940106;29;20091;-90
2022/05/29 01:07:56;;;;;;;14.13;4.47;;;8.90;99.90;;;;;;4939894;29;20152;-91
2022/05/29 01:10:34;;;;;;;15.45;4.70;;;8.90;99.90;;;;;;4940931;29;20519;-92
2022/05/29 01:13:06;;;;;;;14.23;4.10;;;8.80;99.90;;;;;;4939830;29;20062;-91
2022/05/29 01:15:42;;;;;;;16.67;4.82;;;8.80;99.90;;;;;;4940720;29;20047;-91
2022/05/29 01:18:49;;;;;;;14.80;4.25;;;8.70;99.90;;;;;;4958086;29;20380;-91
2022/05/29 01:22:03;;;;;;;16.55;4.30;;;8.70;99.90;;;;;;4932718;29;20085;-91
2022/05/29 01:24:47;;;;;;;16.38;4.75;;;8.60;99.90;;;;;;4952884;29;20059;-90
2022/05/29 01:27:43;;;;;;;13.38;4.10;;;8.60;99.90;;;;;;4957003;29;20134;-90
2022/05/29 01:30:16;;;;;;;14.48;4.30;;;8.50;99.90;;;;;;4957572;29;20118;-90
2022/05/29 01:32:56;;;;;;;15.23;4.10;;;8.50;99.90;;;;;;4957345;29;20046;-92
2022/05/29 01:35:52;;;;;;;12.65;4.25;;;8.50;99.90;;;;;;4964241;29;20059;-90
2022/05/29 01:38:30;;;;;;;13.85;4.28;;;8.50;99.90;;;;;;4944697;29;20039;-90
2022/05/29 01:41:03;;;;;;;15.77;4.32;;;8.60;99.90;;;;;;4939873;29;20150;-90
2022/05/29 01:43:40;;;;;;;14.43;4.20;;;8.60;99.90;;;;;;4957524;29;20050;-91
2022/05/29 01:46:14;;;;;;;15.60;4.63;;;8.60;99.90;;;;;;4940178;29;20047;-91
2022/05/29 01:48:52;;;;;;;16.95;4.53;;;8.60;99.90;;;;;;4939428;29;20464;-91
2022/05/29 01:51:21;;;;;;;17.75;4.10;;;8.60;99.90;;;;;;4957296;29;20051;-91
2022/05/29 01:53:53;;;;;;;15.23;4.75;;;8.60;99.90;;;;;;4956508;29;20047;-90
2022/05/29 01:56:28;;;;;;;15.25;4.88;;;8.60;99.90;;;;;;4956324;29;20062;-90
2022/05/29 01:59:17;;;;;;;16.08;4.82;;;8.60;99.90;;;;;;4970874;28;20050;-91
2022/05/29 02:01:54;;;;;;;16.55;3.97;;;8.60;99.90;;;;;;4954766;29;20098;-91
2022/05/29 02:04:23;;;;;;;16.23;4.47;;;8.60;99.90;;;;;;4939769;29;20055;-91
2022/05/29 02:09:41;;;;;;;14.82;4.38;;;8.50;99.90;;;;;;4939390;29;20431;-91
2022/05/29 02:12:14;;;;;;;19.35;4.47;;;9.00;99.90;;;;;;4962319;29;20054;-91
2022/05/29 02:14:47;;;;;;;13.93;4.15;;;8.40;99.90;;;;;;4960327;29;20040;-90
2022/05/29 02:17:17;;;;;;;15.55;4.50;;;8.40;99.90;;;;;;4939431;29;20403;-90
2022/05/29 02:19:55;;;;;;;15.57;4.53;;;8.40;99.90;;;;;;4939230;29;20039;-90
2022/05/29 02:22:27;;;;;;;14.70;4.40;;;8.30;99.90;;;;;;4943388;29;20075;-90
2022/05/29 02:25:00;;;;;;;14.95;4.55;;;8.30;99.90;;;;;;4938905;29;20492;-90
2022/05/29 02:27:34;;;;;;;13.70;4.43;;;8.30;99.90;;;;;;4939570;29;20073;-90
2022/05/29 02:30:03;;;;;;;14.55;4.68;;;8.30;99.90;;;;;;4955766;29;20443;-90
2022/05/29 02:32:41;;;;;;;17.45;4.35;;;8.30;99.90;;;;;;4956430;28;20043;-89
2022/05/29 02:35:27;;;;;;;16.33;5.15;;;8.30;99.90;;;;;;4956682;29;20051;-90
2022/05/29 02:38:12;;;;;;;17.75;4.43;;;8.30;99.90;;;;;;4940370;29;20059;-90
2022/05/29 02:40:52;;;;;;;16.92;4.65;;;8.30;99.90;;;;;;4940037;29;20054;-91
2022/05/29 02:43:51;;;;;;;19.05;4.85;;;8.40;99.90;;;;;;4956110;29;20540;-90
2022/05/29 02:46:19;;;;;;;13.13;3.90;;;8.40;99.90;;;;;;4973394;28;20084;-89
2022/05/29 02:49:06;;;;;;;15.73;4.68;;;8.40;99.90;;;;;;4957745;28;20124;-90
2022/05/29 02:51:41;;;;;;;13.45;4.40;;;8.40;99.90;;;;;;4974863;28;20113;-90
2022/05/29 02:54:10;;;;;;;17.77;5.10;;;8.40;99.90;;;;;;4975499;28;20035;-90
2022/05/29 02:56:36;;;;;;;18.25;4.50;;;8.40;99.90;;;;;;4975105;28;20047;-89
2022/05/29 02:59:02;;;;;;;15.57;4.95;;;8.40;99.90;;;;;;4974114;28;20422;-90
2022/05/29 03:01:53;;;;;;;17.35;4.60;;;8.30;99.90;;;;;;4968147;28;20689;-90
2022/05/29 03:04:47;;;;;;;15.50;4.43;;;8.40;99.90;;;;;;4970587;28;20099;-92
2022/05/29 03:07:35;;;;;;;20.88;4.80;;;8.50;99.90;;;;;;4955449;29;20043;-90
2022/05/29 03:10:09;;;;;;;12.98;4.47;;;8.40;99.90;;;;;;4955161;28;20130;-91
2022/05/29 03:13:03;;;;;;;15.23;4.40;;;8.40;99.90;;;;;;4955861;29;20130;-91
2022/05/29 03:15:47;;;;;;;15.60;4.40;;;8.40;99.90;;;;;;4946668;29;20047;-91
2022/05/29 03:18:18;;;;;;;14.57;4.45;;;8.50;99.90;;;;;;4970605;28;20051;-91
2022/05/29 03:21:24;;;;;;;17.05;4.47;;;8.40;99.90;;;;;;4937614;29;20047;-90
2022/05/29 03:24:15;;;;;;;19.10;4.82;;;8.40;99.90;;;;;;4955382;29;20051;-90
2022/05/29 03:26:51;;;;;;;13.75;4.97;;;8.40;99.90;;;;;;4937375;29;20047;-91
2022/05/29 03:29:26;;;;;;;12.55;4.15;;;8.40;99.90;;;;;;4956303;29;20074;-91
2022/05/29 03:31:52;;;;;;;16.88;4.40;;;8.40;99.90;;;;;;4955584;29;20053;-92
2022/05/29 03:34:20;;;;;;;18.17;4.70;;;8.40;99.90;;;;;;4954645;29;20500;-92
2022/05/29 03:36:47;;;;;;;14.98;4.60;;;8.40;99.90;;;;;;4937922;29;20134;-92
2022/05/29 03:39:13;;;;;;;16.20;4.25;;;8.40;99.90;;;;;;4938559;29;20122;-91
2022/05/29 03:41:45;;;;;;;16.17;4.32;;;8.40;99.90;;;;;;4958936;29;20095;-89
2022/05/29 03:44:16;;;;;;;15.98;5.32;;;8.40;99.90;;;;;;4938202;29;20043;-90
2022/05/29 03:46:44;;;;;;;15.93;4.72;;;8.50;99.90;;;;;;4955031;29;20055;-91
2022/05/29 03:49:15;;;;;;;15.32;5.22;;;8.40;99.90;;;;;;4937461;29;20047;-90
2022/05/29 03:51:41;;;;;;;13.85;4.03;;;8.50;99.90;;;;;;4955083;29;20055;-89
2022/05/29 03:54:08;;;;;;;16.15;4.60;;;8.50;99.90;;;;;;4955396;29;20039;-89
2022/05/29 03:56:33;;;;;;;18.02;4.43;;;8.60;99.90;;;;;;4954880;29;20047;-91
2022/05/29 03:58:59;;;;;;;13.10;4.10;;;8.50;99.90;;;;;;4937397;29;20126;-91
2022/05/29 04:01:25;;;;;;;15.82;4.63;;;8.50;99.90;;;;;;4937173;29;20478;-91
2022/05/29 04:03:54;;;;;;;15.50;5.03;;;8.60;99.90;;;;;;4937591;29;20053;-91
2022/05/29 04:06:27;;;;;;;14.15;4.28;;;8.50;99.90;;;;;;4976389;28;20027;-91
2022/05/29 04:14:25;;;;;;;17.38;4.30;;;8.50;99.90;;;;;;4962860;29;20059;-91
2022/05/29 04:16:52;;;;;;;16.17;3.97;;;8.40;99.90;;;;;;4941200;29;20182;-91
2022/05/29 04:19:18;;;;;;;12.20;4.22;;;8.40;99.90;;;;;;4937676;29;20051;-90
2022/05/29 04:21:44;;;;;;;17.48;4.60;;;8.50;99.90;;;;;;4954341;28;20050;-90
2022/05/29 04:24:10;;;;;;;13.05;4.10;;;8.50;99.90;;;;;;4936362;29;20133;-90
2022/05/29 04:26:36;;;;;;;15.98;4.40;;;8.50;99.90;;;;;;4937243;29;20103;-90
2022/05/29 04:29:03;;;;;;;14.93;4.38;;;8.60;99.90;;;;;;4960537;28;20062;-90
2022/05/29 04:31:29;;;;;;;14.80;4.15;;;8.60;99.90;;;;;;4956003;28;20122;-90
2022/05/29 04:33:55;;;;;;;12.90;3.63;;;8.60;99.90;;;;;;4974418;28;20071;-90
2022/05/29 04:36:21;;;;;;;13.70;4.03;;;8.70;99.90;;;;;;4955834;28;20042;-90
2022/05/29 04:38:46;;;;;;;13.43;3.47;;;8.70;99.90;;;;;;4956525;28;20047;-91
2022/05/29 04:41:12;;;;;;;11.75;3.83;;;8.70;99.90;;;;;;4956215;28;20078;-90
2022/05/29 04:43:38;;;;;;;16.65;3.50;;;8.80;99.90;;;;;;4955823;28;20049;-91
2022/05/29 04:46:04;;;;;;;14.65;3.67;;;8.70;99.90;;;;;;4960443;28;20078;-91
2022/05/29 04:48:30;;;;;;;11.40;3.30;;;8.80;99.90;;;;;;4957345;28;20103;-90
2022/05/29 04:51:06;;;;;;;16.42;3.72;;;8.80;99.90;;;;;;4965953;28;20051;-91
2022/05/29 04:53:32;;;;;;;15.75;3.60;;;8.80;99.90;;;;;;4958147;28;20051;-91
2022/05/29 04:55:59;;;;;;;15.02;3.70;;;8.80;99.90;;;;;;4956697;28;20043;-91
2022/05/29 04:58:27;;;;;;;13.48;3.90;;;8.90;99.90;;;;;;4955567;28;20099;-91
2022/05/29 05:01:01;;;;;;;13.65;3.60;;;8.90;99.90;;;;;;4973920;28;20077;-90
2022/05/29 05:03:27;;;;;;;14.55;4.05;;;9.00;99.90;;;;;;4974014;28;20047;-91
2022/05/29 05:05:53;;;;;;;11.98;3.53;;;9.00;99.90;;;;;;4955278;28;20058;-91
2022/05/29 05:08:18;;;;;;;14.43;3.40;;;9.00;99.90;;;;;;4973460;28;20047;-90
2022/05/29 05:10:44;;;;;;;11.55;3.28;;;9.00;99.90;;;;;;4973403;28;20039;-90
2022/05/29 05:13:10;;;;;;;13.27;4.40;;;9.10;99.90;;;;;;4955379;28;20054;-91
2022/05/29 05:15:35;;;;;;;11.60;3.50;;;9.10;99.90;;;;;;4973547;28;20414;-90
2022/05/29 05:18:02;;;;;;;13.32;3.10;;;9.20;99.90;;;;;;4973236;28;20050;-89
2022/05/29 05:20:28;;;;;;;13.98;3.45;;;9.80;99.90;;;;;;4972593;28;20495;-89
2022/05/29 05:22:54;;;;;;;15.38;3.33;;;9.20;99.90;;;;;;4955600;28;20057;-89
2022/05/29 05:25:19;;;;;;;11.40;3.35;;;9.30;99.90;;;;;;4955767;28;20142;-90
2022/05/29 05:27:45;;;;;;;13.38;3.55;;;9.30;99.90;;;;;;4987511;28;20055;-89
2022/05/29 05:30:11;;;;;;;13.10;3.13;;;9.40;99.90;;;;;;4974419;28;20418;-89
2022/05/29 05:32:37;;;;;;;11.65;3.45;;;9.40;99.90;;;;;;4973412;28;20053;-89
2022/05/29 05:35:06;;;;;;;12.63;3.42;;;9.50;99.90;;;;;;4993764;28;20114;-89
2022/05/29 05:37:36;;;;;;;10.93;2.92;;;9.50;99.90;;;;;;4978895;28;20049;-90
2022/05/29 05:40:05;;;;;;;12.95;3.10;;;9.50;99.90;;;;;;4975834;28;20057;-89
2022/05/29 05:42:31;;;;;;;14.10;3.22;;;9.50;99.90;;;;;;4958604;28;20443;-91
2022/05/29 05:44:56;;;;;;;14.57;3.40;;;9.50;99.90;;;;;;4976110;28;20042;-91
2022/05/29 05:47:22;;;;;;;11.18;2.80;;;9.50;99.90;;;;;;4958455;28;20122;-90
2022/05/29 05:49:49;;;;;;;13.88;3.30;;;9.60;99.90;;;;;;4962857;28;20533;-91
2022/05/29 05:52:16;;;;;;;14.13;2.92;;;9.60;99.90;;;;;;4976590;28;20058;-91
2022/05/29 05:54:41;;;;;;;13.68;3.05;;;9.60;99.90;;;;;;4958195;28;20047;-90
2022/05/29 05:57:07;;;;;;;14.50;3.05;;;9.50;99.90;;;;;;4976576;28;20050;-91
2022/05/29 05:59:34;;;;;;;13.38;3.30;;;9.50;99.90;;;;;;4964541;28;20069;-90
2022/05/29 06:02:00;;;;;;;13.07;3.03;;;9.60;99.90;;;;;;4959554;28;20409;-91
2022/05/29 06:04:25;;;;;;;11.18;2.75;;;9.50;99.90;;;;;;4976794;28;20504;-91
2022/05/29 06:06:51;;;;;;;11.25;2.88;;;9.60;99.90;;;;;;4958876;28;20463;-90
2022/05/29 06:09:19;;;;;;;8.32;2.40;;;9.60;99.90;;;;;;4963420;28;20047;-90
2022/05/29 06:11:45;;;;;;;10.82;2.60;;;9.70;99.90;;;;;;4958901;28;20058;-90
2022/05/29 06:14:11;;;;;;;12.25;3.30;;;9.70;99.90;;;;;;4958911;28;20046;-89
2022/05/29 06:16:36;;;;;;;10.98;2.70;;;9.80;99.90;;;;;;4958208;28;20047;-89
2022/05/29 06:19:04;;;;;;;13.13;3.13;;;9.90;99.90;;;;;;4975769;28;20498;-90
2022/05/29 06:21:30;;;;;;;10.10;2.63;;;9.90;99.90;;;;;;4976149;28;20054;-88
2022/05/29 06:23:56;;;;;;;11.43;2.95;;;10.00;99.90;;;;;;4957380;28;20051;-90
2022/05/29 06:26:21;;;;;;;12.52;2.88;;;10.10;99.90;;;;;;4981132;28;20077;-91
2022/05/29 06:28:47;;;;;;;13.60;3.25;;;10.20;99.90;;;;;;4960867;28;20046;-90
2022/05/29 06:31:13;;;;;;;11.52;2.70;;;10.30;99.90;;;;;;4957115;28;20524;-90
2022/05/29 06:33:39;;;;;;;13.90;2.83;;;10.40;99.90;;;;;;4956455;29;20471;-90
2022/05/29 06:36:14;;;;;;;13.13;2.90;;;10.50;99.90;;;;;;4955597;29;20046;-92
2022/05/29 06:38:41;;;;;;;12.48;2.78;;;10.50;99.90;;;;;;4939370;29;20086;-90
2022/05/29 06:41:09;;;;;;;15.20;3.17;;;10.40;99.90;;;;;;4956266;29;20401;-90
2022/05/29 06:43:35;;;;;;;12.82;2.80;;;10.40;99.90;;;;;;4938208;29;20110;-89
2022/05/29 06:46:02;;;;;;;13.45;3.30;;;10.30;99.90;;;;;;4955588;28;20531;-90
2022/05/29 06:48:28;;;;;;;13.13;2.80;;;10.10;99.90;;;;;;4938765;29;20047;-90
2022/05/29 06:50:54;;;;;;;14.35;3.00;;;10.00;99.90;;;;;;4938086;29;20086;-90
2022/05/29 06:53:20;;;;;;;13.90;3.67;;;9.90;99.90;;;;;;4941363;29;20075;-91
2022/05/29 06:55:55;;;;;;;13.13;3.00;;;9.80;99.90;;;;;;4939651;29;20071;-91
2022/05/29 06:58:23;;;;;;;13.85;3.40;;;9.70;99.90;;;;;;4937890;29;20063;-90
2022/05/29 07:09:04;;;;;;;12.65;3.13;;;9.60;99.90;;;;;;4959252;28;20051;-87
2022/05/29 07:11:35;;;;;;;11.85;2.60;;;9.70;99.90;;;;;;4999252;28;20086;-88
2022/05/29 07:14:05;;;;;;;13.07;2.88;;;9.80;99.90;;;;;;4972199;28;20073;-89
2022/05/29 07:16:32;;;;;;;12.43;3.03;;;9.80;99.90;;;;;;4963638;28;20057;-89
2022/05/29 07:18:57;;;;;;;12.80;2.80;;;9.90;99.90;;;;;;4957337;28;20039;-89
2022/05/29 07:21:23;;;;;;;12.27;2.75;;;10.00;99.90;;;;;;4974953;28;20129;-91
2022/05/29 07:23:49;;;;;;;13.30;3.00;;;10.20;99.90;;;;;;4974498;28;20119;-90
2022/05/29 07:26:15;;;;;;;17.88;3.05;;;10.30;99.90;;;;;;4956563;28;20058;-90
2022/05/29 07:28:40;;;;;;;14.70;3.22;;;10.50;99.90;;;;;;4975105;28;20051;-94
2022/05/29 07:31:09;;;;;;;14.23;3.40;;;10.60;99.90;;;;;;4976727;28;20514;-95
2022/05/29 07:33:35;;;;;;;14.10;2.80;;;10.70;99.90;;;;;;4974876;28;20084;-92
2022/05/29 07:36:00;;;;;;;17.23;3.28;;;10.80;99.90;;;;;;4973922;28;20143;-92
2022/05/29 07:38:29;;;;;;;11.15;2.72;;;10.90;99.90;;;;;;4973705;28;20042;-90
2022/05/29 07:40:54;;;;;;;14.55;3.17;;;11.00;99.90;;;;;;4972956;28;20089;-90
2022/05/29 07:43:22;;;;;;;13.60;2.70;;;11.10;99.90;;;;;;4956384;28;20050;-91
2022/05/29 07:45:58;;;;;;;12.10;2.78;;;11.10;99.90;;;;;;4973428;28;20042;-95
2022/05/29 07:48:27;;;;;;;12.15;2.65;;;11.40;99.90;;;;;;4956611;28;20182;-92
2022/05/29 07:50:53;;;;;;;14.00;2.72;;;11.00;99.90;;;;;;4975767;28;20141;-90
2022/05/29 07:53:19;;;;;;;18.67;2.80;;;11.00;99.90;;;;;;4964442;28;20498;-90
2022/05/29 07:55:45;;;;;;;11.98;3.08;;;11.00;99.90;;;;;;4981419;28;20086;-92
2022/05/29 07:58:12;;;;;;;15.65;3.05;;;11.00;99.90;;;;;;4956682;28;20061;-90
2022/05/29 08:00:39;;;;;;;12.43;3.55;;;11.00;99.90;;;;;;4977317;28;20082;-89
2022/05/29 08:03:06;;;;;;;10.45;2.58;;;11.10;99.90;;;;;;4961166;28;20074;-91
2022/05/29 08:05:35;;;;;;;13.27;2.80;;;11.20;99.90;;;;;;4958238;28;20090;-88
2022/05/29 08:08:04;;;;;;;15.88;3.03;;;11.20;99.90;;;;;;4955941;28;20090;-93
2022/05/29 08:10:32;;;;;;;13.10;2.65;;;11.20;99.90;;;;;;4957033;28;20105;-88
2022/05/29 08:12:58;;;;;;;13.07;2.60;;;11.20;99.90;;;;;;4972293;28;20058;-90
2022/05/29 08:15:24;;;;;;;12.57;2.63;;;11.70;99.90;;;;;;4955771;28;20446;-91
2022/05/29 08:17:50;;;;;;;15.40;2.78;;;11.20;99.90;;;;;;4974104;28;20054;-90
2022/05/29 08:20:16;;;;;;;13.85;3.38;;;11.30;99.90;;;;;;4957220;28;20399;-92
2022/05/29 08:22:42;;;;;;;13.43;2.45;;;11.30;99.90;;;;;;4973372;28;20121;-87
2022/05/29 08:30:43;;;;;;;13.10;2.45;;;11.40;99.90;;;;;;4955788;28;20141;-87
2022/05/29 08:33:20;;;;;;;12.85;2.90;;;11.40;99.90;;;;;;4956955;28;20486;-91
2022/05/29 08:35:53;;;;;;;10.95;2.72;;;11.40;99.90;;;;;;4957722;28;20878;-90
2022/05/29 08:38:20;;;;;;;11.63;2.50;;;11.30;99.90;;;;;;4953785;28;20512;-90
2022/05/29 08:40:56;;;;;;;12.07;2.83;;;11.30;99.90;;;;;;4971708;28;20502;-90
2022/05/29 08:44:01;;;;;;;12.65;2.38;;;11.30;99.90;;;;;;4969944;28;20053;-86
2022/05/29 08:46:36;;;;;;;13.15;2.45;;;11.00;99.90;;;;;;4895819;29;20125;-90
2022/05/29 08:49:02;;;;;;;10.73;2.70;;;11.00;99.90;;;;;;4965832;28;20059;-96
2022/05/29 08:51:46;;;;;;;11.75;2.80;;;10.80;99.90;;;;;;4955445;28;20045;-88
2022/05/29 08:54:44;;;;;;;12.75;2.38;;;10.70;99.90;;;;;;4953483;28;20114;-87
2022/05/29 08:57:30;;;;;;;10.50;2.20;;;10.80;99.90;;;;;;4918759;28;20054;-89
2022/05/29 08:59:58;;;;;;;11.55;2.60;;;10.90;99.90;;;;;;4952702;28;20157;-87
2022/05/29 09:02:27;;;;;;;8.77;2.30;;;11.10;99.90;;;;;;4954346;28;20042;-87
2022/05/29 09:05:08;;;;;;;11.48;2.75;;;11.20;99.90;;;;;;4970301;28;20490;-87
2022/05/29 09:07:37;;;;;;;12.48;2.33;;;11.30;99.90;;;;;;4952993;28;20149;-87
2022/05/29 09:10:11;;;;;;;12.05;2.35;;;11.40;99.90;;;;;;4958086;28;20501;-91
2022/05/29 09:12:47;;;;;;;10.60;2.33;;;11.40;99.90;;;;;;4960051;28;20039;-93
2022/05/29 09:15:32;;;;;;;10.90;2.45;;;11.50;99.90;;;;;;4970968;28;20038;-96
2022/05/29 09:18:04;;;;;;;11.43;2.30;;;11.60;99.90;;;;;;4976895;28;20054;-95
2022/05/29 09:20:35;;;;;;;11.75;2.35;;;11.70;99.90;;;;;;4990902;28;20075;-90
2022/05/29 09:23:02;;;;;;;9.80;2.22;;;11.80;99.90;;;;;;4953361;28;20456;-89
2022/05/29 09:25:46;;;;;;;8.93;2.00;;;11.90;99.90;;;;;;4975716;28;20526;-90
2022/05/29 09:28:16;;;;;;;13.18;3.35;;;12.00;99.90;;;;;;4959212;28;20062;-90
2022/05/29 09:30:43;;;;;;;9.77;2.30;;;12.10;99.90;;;;;;4976378;28;20051;-89
2022/05/29 09:33:17;;;;;;;9.50;2.60;;;12.20;99.90;;;;;;4976617;28;20129;-90
2022/05/29 09:35:51;;;;;;;11.48;2.40;;;12.00;99.90;;;;;;4959322;28;20069;-90
2022/05/29 09:38:26;;;;;;;10.82;2.35;;;11.80;99.90;;;;;;4978992;28;20047;-90
2022/05/29 09:40:57;;;;;;;11.07;2.28;;;11.70;99.90;;;;;;4958546;28;20050;-89
2022/05/29 09:43:26;;;;;;;7.95;1.92;;;11.70;99.90;;;;;;4958209;28;20089;-88
2022/05/29 09:45:52;;;;;;;8.88;2.00;;;11.80;99.90;;;;;;4954485;28;20051;-90
2022/05/29 09:51:20;;;;;;;12.85;2.55;;;11.80;99.90;;;;;;4976819;28;20074;-90
2022/05/29 09:53:53;;;;;;;10.43;2.35;;;11.70;99.90;;;;;;4980555;28;20054;-90
2022/05/29 09:56:31;;;;;;;8.48;2.20;;;11.40;99.90;;;;;;4945133;29;20043;-89
2022/05/29 09:59:05;;;;;;;9.57;2.10;;;11.10;99.90;;;;;;4956828;29;20051;-88
2022/05/29 10:01:42;;;;;;;9.23;2.03;;;10.90;99.90;;;;;;4939119;29;20044;-88
2022/05/29 10:04:30;;;;;;;9.32;2.25;;;10.70;99.90;;;;;;4969387;28;20062;-89
2022/05/29 10:06:58;;;;;;;10.98;2.30;;;10.60;99.90;;;;;;4975307;28;20051;-93
2022/05/29 10:09:26;;;;;;;11.40;2.63;;;10.70;99.90;;;;;;4975519;28;20434;-86
2022/05/29 10:11:56;;;;;;;8.60;2.30;;;10.90;99.90;;;;;;4956459;28;20154;-92
2022/05/29 10:14:42;;;;;;;6.78;1.83;;;11.20;99.90;;;;;;4958571;28;20043;-93
2022/05/29 10:17:14;;;;;;;11.68;2.25;;;11.30;99.90;;;;;;4990837;28;20046;-90
2022/05/29 10:19:45;;;;;;;11.55;2.10;;;11.40;99.90;;;;;;4985513;28;20051;-92
2022/05/29 10:22:26;;;;;;;7.50;1.95;;;11.50;99.90;;;;;;4966213;28;20043;-91
2022/05/29 10:24:54;;;;;;;7.53;2.00;;;11.50;99.90;;;;;;4973441;28;20564;-88
2022/05/29 10:27:26;;;;;;;9.73;2.00;;;11.50;99.90;;;;;;4958207;28;20051;-91
2022/05/29 10:29:56;;;;;;;9.63;2.13;;;11.40;99.90;;;;;;4976467;28;20047;-94
2022/05/29 10:32:26;;;;;;;10.65;1.90;;;11.40;99.90;;;;;;4975435;28;20078;-91
2022/05/29 10:35:22;;;;;;;8.20;2.03;;;11.30;99.90;;;;;;4958025;28;20125;-90
2022/05/29 10:37:48;;;;;;;7.32;2.00;;;11.20;99.90;;;;;;4973826;28;20043;-91
2022/05/29 10:40:31;;;;;;;9.18;2.20;;;11.30;99.90;;;;;;4976577;28;20414;-94
2022/05/29 10:43:04;;;;;;;8.45;2.55;;;11.30;99.90;;;;;;4959162;28;20057;-91
2022/05/29 10:45:34;;;;;;;8.77;2.03;;;11.40;99.90;;;;;;4959601;28;20126;-95
2022/05/29 10:48:03;;;;;;;10.32;3.00;;;11.50;99.90;;;;;;4976912;28;20506;-91
2022/05/29 10:50:53;;;;;;;10.40;2.72;;;11.70;99.90;;;;;;4984301;28;20066;-91
2022/05/29 10:53:34;;;;;;;7.50;1.90;;;11.90;99.90;;;;;;4978002;28;20043;-93
2022/05/29 10:56:28;;;;;;;9.07;2.05;;;12.00;99.90;;;;;;4973229;28;20133;-92
2022/05/29 10:59:13;;;;;;;8.98;2.33;;;12.00;99.90;;;;;;4986558;28;20058;-96
2022/05/29 11:04:59;;;;;;;8.98;2.20;;;11.80;99.90;;;;;;4976236;28;20082;-94
2022/05/29 11:07:50;;;;;;;9.32;1.90;;;12.60;99.90;;;;;;4982316;28;20494;-95
2022/05/29 11:10:48;;;;;;;8.48;2.10;;;11.50;99.90;;;;;;4977820;28;20195;-93
2022/05/29 11:13:42;;;;;;;9.25;2.17;;;11.40;99.90;;;;;;4987931;28;20053;-93
2022/05/29 11:16:17;;;;;;;8.40;1.92;;;11.30;99.90;;;;;;4964155;28;20443;-95
2022/05/29 11:19:14;;;;;;;10.88;2.20;;;11.10;99.90;;;;;;4959269;28;20106;-95
2022/05/29 11:22:22;;;;;;;8.93;2.33;;;11.20;99.90;;;;;;4976222;28;20047;-93
2022/05/29 11:25:06;;;;;;;8.70;2.20;;;11.60;99.90;;;;;;4957105;28;20065;-94
2022/05/29 11:27:57;;;;;;;11.15;2.90;;;12.00;99.90;;;;;;4974920;28;20055;-94
2022/05/29 11:30:50;;;;;;;10.65;2.10;;;11.90;99.90;;;;;;4958839;28;20085;-94
2022/05/29 11:33:26;;;;;;;7.93;1.95;;;12.30;99.90;;;;;;4957189;28;20047;-96
2022/05/29 11:36:19;;;;;;;8.43;1.80;;;12.40;99.90;;;;;;4960259;28;20418;-90
2022/05/29 11:39:17;;;;;;;10.65;1.92;;;12.50;99.90;;;;;;4972533;28;20078;-90
2022/05/29 11:41:57;;;;;;;9.35;2.20;;;12.50;99.90;;;;;;4962684;28;20127;-92
2022/05/29 11:44:54;;;;;;;9.90;2.53;;;12.50;99.90;;;;;;4975747;28;20146;-89
2022/05/29 11:53:14;;;;;;;8.45;2.03;;;12.30;99.90;;;;;;4938022;29;20415;-90
2022/05/29 11:55:42;;;;;;;9.55;2.10;;;12.10;99.90;;;;;;4954488;29;20494;-92
2022/05/29 11:58:14;;;;;;;10.50;2.40;;;12.00;99.90;;;;;;4937475;29;20145;-89
2022/05/29 12:00:57;;;;;;;10.25;2.28;;;11.90;99.90;;;;;;4936579;29;20093;-90
2022/05/29 12:03:50;;;;;;;9.35;2.17;;;11.90;99.90;;;;;;4937663;29;20054;-88
2022/05/29 12:06:42;;;;;;;8.70;2.08;;;12.00;99.90;;;;;;4954389;29;20130;-90
2022/05/29 12:09:28;;;;;;;11.15;2.20;;;12.20;99.90;;;;;;4937678;29;20047;-90
2022/05/29 12:12:20;;;;;;;7.03;1.95;;;12.40;99.90;;;;;;4938506;29;20071;-89
2022/05/29 12:15:02;;;;;;;9.65;2.35;;;12.50;99.90;;;;;;4971830;28;20079;-91
2022/05/29 12:17:38;;;;;;;9.65;2.00;;;12.80;99.90;;;;;;4977061;28;20094;-93
2022/05/29 12:20:19;;;;;;;8.80;2.20;;;12.70;99.90;;;;;;4961332;28;20137;-92
2022/05/29 12:23:03;;;;;;;10.52;2.20;;;13.40;99.90;;;;;;4940816;28;20447;-92
2022/05/29 12:25:39;;;;;;;7.88;2.03;;;13.40;99.90;;;;;;4956565;28;20113;-92
2022/05/29 12:28:15;;;;;;;11.35;2.10;;;12.90;99.90;;;;;;4955564;28;20562;-90
2022/05/29 12:30:45;;;;;;;9.20;2.10;;;13.10;99.90;;;;;;4973569;28;20043;-91
2022/05/29 12:33:17;;;;;;;8.85;2.10;;;12.50;99.90;;;;;;4974400;28;20121;-92
2022/05/29 12:36:07;;;;;;;8.13;2.00;;;12.30;99.90;;;;;;4955352;28;20506;-91
2022/05/29 12:38:50;;;;;;;6.30;1.90;;;12.00;99.90;;;;;;4973933;28;20100;-92
2022/05/29 12:41:58;;;;;;;7.40;1.77;;;11.70;99.90;;;;;;4973882;28;20086;-92
2022/05/29 12:44:56;;;;;;;9.10;1.92;;;11.70;99.90;;;;;;4960155;28;20047;-91
2022/05/29 12:47:43;;;;;;;10.40;2.30;;;11.80;99.90;;;;;;4982576;28;20054;-91
2022/05/29 12:50:45;;;;;;;9.13;1.90;;;11.90;99.90;;;;;;4960359;28;20431;-89
2022/05/29 12:53:25;;;;;;;9.15;2.78;;;12.00;99.90;;;;;;4977579;28;20554;-89
2022/05/29 12:56:17;;;;;;;10.15;2.30;;;12.10;99.90;;;;;;4977983;28;20043;-91
2022/05/29 12:58:58;;;;;;;6.95;1.73;;;12.20;99.90;;;;;;4959523;28;20054;-90
2022/05/29 13:01:36;;;;;;;7.75;1.90;;;12.20;99.90;;;;;;4959438;28;20101;-90
2022/05/29 13:04:21;;;;;;;10.45;2.20;;;12.20;99.90;;;;;;4975461;28;20550;-90
2022/05/29 13:07:06;;;;;;;10.07;2.47;;;12.30;99.90;;;;;;4976969;28;20126;-90
2022/05/29 13:09:46;;;;;;;9.65;1.90;;;12.50;99.90;;;;;;4959523;28;20050;-89
2022/05/29 13:12:21;;;;;;;7.18;1.63;;;12.60;99.90;;;;;;4977175;28;20057;-90
2022/05/29 13:14:57;;;;;;;8.43;1.80;;;12.80;99.90;;;;;;4979067;28;20105;-90
2022/05/29 13:17:29;;;;;;;7.97;2.00;;;12.90;99.90;;;;;;4959402;28;20399;-89
2022/05/29 13:20:04;;;;;;;8.20;2.10;;;12.90;99.90;;;;;;4969992;28;20058;-89
2022/05/29 13:22:48;;;;;;;8.55;2.00;;;13.00;99.90;;;;;;4984542;28;20086;-90
2022/05/29 13:25:16;;;;;;;9.93;2.40;;;13.00;99.90;;;;;;4960194;28;20061;-89
2022/05/29 13:27:42;;;;;;;7.63;2.05;;;12.90;99.90;;;;;;4963764;28;20114;-92
2022/05/29 13:30:36;;;;;;;8.55;2.38;;;12.80;99.90;;;;;;4960904;28;20055;-90
2022/05/29 13:33:26;;;;;;;10.52;2.47;;;12.70;99.90;;;;;;4975647;28;20083;-91
2022/05/29 13:35:53;;;;;;;9.85;2.50;;;12.60;99.90;;;;;;4991538;28;20043;-95
2022/05/29 13:38:50;;;;;;;7.13;2.03;;;12.50;99.90;;;;;;4992754;28;20050;-95
2022/05/29 13:41:32;;;;;;;11.18;2.30;;;12.40;99.90;;;;;;4979686;28;20108;-96
2022/05/29 13:44:36;;;;;;;11.98;2.20;;;12.90;99.90;;;;;;4983298;28;20498;-91
2022/05/29 13:47:36;;;;;;;5.90;1.90;;;11.90;99.90;;;;;;4967844;28;20057;-93
2022/05/29 13:50:11;;;;;;;7.68;1.88;;;11.80;99.90;;;;;;4957249;29;20103;-95
2022/05/29 13:53:20;;;;;;;8.85;2.08;;;11.20;99.90;;;;;;4940387;29;20427;-96
2022/05/29 13:56:00;;;;;;;9.73;2.03;;;10.90;99.90;;;;;;4922353;29;20055;-95